sensor_id;sensor_type;location;lat;lon;timestamp;temperature;humidity
74458;SHT31;62896;51.032;3.712;2023-08-12T00:01:33;21.4;88
74458;SHT31;62896;51.032;3.712;2023-08-12T00:04:53;21.3;89
74458;SHT31;62896;51.032;3.712;2023-08-12T00:08:13;21.3;89
74458;SHT31;62896;51.032;3.712;2023-08-12T00:11:34;21.3;89
74458;SHT31;62896;51.032;3.712;2023-08-12T00:14:53;21.1;88
74458;SHT31;62896;51.032;3.712;2023-08-12T00:18:13;21.1;88
74458;SHT31;62896;51.032;3.712;2023-08-12T00:21:33;21.1;88
74458;SHT31;62896;51.032;3.712;2023-08-12T00:24:53;21;89
74458;SHT31;62896;51.032;3.712;2023-08-12T00:28:13;21;89
74458;SHT31;62896;51.032;3.712;2023-08-12T00:31:33;21;89
74458;SHT31;62896;51.032;3.712;2023-08-12T00:34:53;21;89
74458;SHT31;62896;51.032;3.712;2023-08-12T00:38:13;21;89
74458;SHT31;62896;51.032;3.712;2023-08-12T00:41:33;21;89
74458;SHT31;62896;51.032;3.712;2023-08-12T00:44:53;20.9;89
74458;SHT31;62896;51.032;3.712;2023-08-12T00:48:13;20.9;89
74458;SHT31;62896;51.032;3.712;2023-08-12T00:51:33;20.9;89
74458;SHT31;62896;51.032;3.712;2023-08-12T00:54:53;20.8;89
74458;SHT31;62896;51.032;3.712;2023-08-12T00:58:13;20.8;89
74458;SHT31;62896;51.032;3.712;2023-08-12T01:01:33;20.8;89
74458;SHT31;62896;51.032;3.712;2023-08-12T01:04:53;20.7;90
74458;SHT31;62896;51.032;3.712;2023-08-12T01:08:13;20.7;90
74458;SHT31;62896;51.032;3.712;2023-08-12T01:11:35;20.7;90
74458;SHT31;62896;51.032;3.712;2023-08-12T01:14:56;20.6;90
74458;SHT31;62896;51.032;3.712;2023-08-12T01:18:13;20.6;90
74458;SHT31;62896;51.032;3.712;2023-08-12T01:21:33;20.6;90
74458;SHT31;62896;51.032;3.712;2023-08-12T01:24:53;20.6;91
74458;SHT31;62896;51.032;3.712;2023-08-12T01:28:13;20.6;91
74458;SHT31;62896;51.032;3.712;2023-08-12T01:31:34;20.6;91
74458;SHT31;62896;51.032;3.712;2023-08-12T01:34:55;20.6;91
74458;SHT31;62896;51.032;3.712;2023-08-12T01:38:13;20.6;91
74458;SHT31;62896;51.032;3.712;2023-08-12T01:41:33;20.6;91
74458;SHT31;62896;51.032;3.712;2023-08-12T01:44:53;20.5;92
74458;SHT31;62896;51.032;3.712;2023-08-12T01:48:13;20.5;92
74458;SHT31;62896;51.032;3.712;2023-08-12T01:51:33;20.5;92
74458;SHT31;62896;51.032;3.712;2023-08-12T01:54:53;20.5;93
74458;SHT31;62896;51.032;3.712;2023-08-12T01:58:13;20.5;93
74458;SHT31;62896;51.032;3.712;2023-08-12T02:01:33;20.5;93
74458;SHT31;62896;51.032;3.712;2023-08-12T02:04:53;20.3;93
74458;SHT31;62896;51.032;3.712;2023-08-12T02:08:13;20.3;93
74458;SHT31;62896;51.032;3.712;2023-08-12T02:11:33;20.3;93
74458;SHT31;62896;51.032;3.712;2023-08-12T02:14:53;20.3;94
74458;SHT31;62896;51.032;3.712;2023-08-12T02:18:13;20.3;94
74458;SHT31;62896;51.032;3.712;2023-08-12T02:21:33;20.3;94
74458;SHT31;62896;51.032;3.712;2023-08-12T02:24:53;20.2;95
74458;SHT31;62896;51.032;3.712;2023-08-12T02:28:13;20.2;95
74458;SHT31;62896;51.032;3.712;2023-08-12T02:31:33;20.2;95
74458;SHT31;62896;51.032;3.712;2023-08-12T02:34:53;20;96
74458;SHT31;62896;51.032;3.712;2023-08-12T02:38:13;20;96
74458;SHT31;62896;51.032;3.712;2023-08-12T02:41:33;20;96
74458;SHT31;62896;51.032;3.712;2023-08-12T02:44:53;19.9;98
74458;SHT31;62896;51.032;3.712;2023-08-12T02:48:13;19.9;98
74458;SHT31;62896;51.032;3.712;2023-08-12T02:51:33;19.9;98
74458;SHT31;62896;51.032;3.712;2023-08-12T02:54:53;19.9;99
74458;SHT31;62896;51.032;3.712;2023-08-12T02:58:13;19.9;99
74458;SHT31;62896;51.032;3.712;2023-08-12T03:01:33;19.9;99
74458;SHT31;62896;51.032;3.712;2023-08-12T03:04:53;20;99
74458;SHT31;62896;51.032;3.712;2023-08-12T03:08:13;20;99
74458;SHT31;62896;51.032;3.712;2023-08-12T03:11:33;20;99
74458;SHT31;62896;51.032;3.712;2023-08-12T03:14:53;19.9;99
74458;SHT31;62896;51.032;3.712;2023-08-12T03:18:13;19.9;99
74458;SHT31;62896;51.032;3.712;2023-08-12T03:21:33;19.9;99
74458;SHT31;62896;51.032;3.712;2023-08-12T03:24:53;20;99
74458;SHT31;62896;51.032;3.712;2023-08-12T03:28:13;20;99
74458;SHT31;62896;51.032;3.712;2023-08-12T03:31:33;20;99
74458;SHT31;62896;51.032;3.712;2023-08-12T03:34:53;19.9;98
74458;SHT31;62896;51.032;3.712;2023-08-12T03:38:13;19.9;98
74458;SHT31;62896;51.032;3.712;2023-08-12T03:41:33;19.9;98
74458;SHT31;62896;51.032;3.712;2023-08-12T03:44:53;19.9;99
74458;SHT31;62896;51.032;3.712;2023-08-12T03:48:13;19.9;99
74458;SHT31;62896;51.032;3.712;2023-08-12T03:51:33;19.9;99
74458;SHT31;62896;51.032;3.712;2023-08-12T03:54:53;19.9;99
74458;SHT31;62896;51.032;3.712;2023-08-12T03:58:13;19.9;99
74458;SHT31;62896;51.032;3.712;2023-08-12T04:01:33;19.9;99
74458;SHT31;62896;51.032;3.712;2023-08-12T04:04:53;19.8;98
74458;SHT31;62896;51.032;3.712;2023-08-12T04:08:13;19.8;98
74458;SHT31;62896;51.032;3.712;2023-08-12T04:11:33;19.8;98
74458;SHT31;62896;51.032;3.712;2023-08-12T04:14:53;19.8;98
74458;SHT31;62896;51.032;3.712;2023-08-12T04:18:13;19.8;98
74458;SHT31;62896;51.032;3.712;2023-08-12T04:21:33;19.8;98
74458;SHT31;62896;51.032;3.712;2023-08-12T04:24:53;19.7;98
74458;SHT31;62896;51.032;3.712;2023-08-12T04:28:13;19.7;98
74458;SHT31;62896;51.032;3.712;2023-08-12T04:31:33;19.7;98
74458;SHT31;62896;51.032;3.712;2023-08-12T04:34:53;19.7;99
74458;SHT31;62896;51.032;3.712;2023-08-12T04:38:13;19.7;99
74458;SHT31;62896;51.032;3.712;2023-08-12T04:41:33;19.7;99
74458;SHT31;62896;51.032;3.712;2023-08-12T04:44:53;19.6;99
74458;SHT31;62896;51.032;3.712;2023-08-12T04:48:13;19.6;99
74458;SHT31;62896;51.032;3.712;2023-08-12T04:51:33;19.6;99
74458;SHT31;62896;51.032;3.712;2023-08-12T04:54:53;19.6;99
74458;SHT31;62896;51.032;3.712;2023-08-12T04:58:13;19.6;99
74458;SHT31;62896;51.032;3.712;2023-08-12T05:01:33;19.6;99
74458;SHT31;62896;51.032;3.712;2023-08-12T05:04:53;19.5;99
74458;SHT31;62896;51.032;3.712;2023-08-12T05:08:13;19.5;99
74458;SHT31;62896;51.032;3.712;2023-08-12T05:11:33;19.5;99
74458;SHT31;62896;51.032;3.712;2023-08-12T05:14:53;19.6;99
74458;SHT31;62896;51.032;3.712;2023-08-12T05:18:13;19.6;99
74458;SHT31;62896;51.032;3.712;2023-08-12T05:21:33;19.6;99
74458;SHT31;62896;51.032;3.712;2023-08-12T05:24:53;19.5;99
74458;SHT31;62896;51.032;3.712;2023-08-12T05:28:13;19.5;99
74458;SHT31;62896;51.032;3.712;2023-08-12T05:31:33;19.5;99
74458;SHT31;62896;51.032;3.712;2023-08-12T05:34:54;19.3;99
74458;SHT31;62896;51.032;3.712;2023-08-12T05:38:13;19.3;99
74458;SHT31;62896;51.032;3.712;2023-08-12T05:41:33;19.3;99
74458;SHT31;62896;51.032;3.712;2023-08-12T05:44:53;18.9;98
74458;SHT31;62896;51.032;3.712;2023-08-12T05:48:13;18.9;98
74458;SHT31;62896;51.032;3.712;2023-08-12T05:51:33;18.9;98
74458;SHT31;62896;51.032;3.712;2023-08-12T05:54:53;18.3;97
74458;SHT31;62896;51.032;3.712;2023-08-12T05:58:13;18.3;97
74458;SHT31;62896;51.032;3.712;2023-08-12T06:01:33;18.3;97
74458;SHT31;62896;51.032;3.712;2023-08-12T06:04:53;17.9;98
74458;SHT31;62896;51.032;3.712;2023-08-12T06:08:13;17.9;98
74458;SHT31;62896;51.032;3.712;2023-08-12T06:11:33;17.9;98
74458;SHT31;62896;51.032;3.712;2023-08-12T06:14:53;17.7;99
74458;SHT31;62896;51.032;3.712;2023-08-12T06:18:13;17.7;99
74458;SHT31;62896;51.032;3.712;2023-08-12T06:21:33;17.7;99
74458;SHT31;62896;51.032;3.712;2023-08-12T06:24:53;17.7;99
74458;SHT31;62896;51.032;3.712;2023-08-12T06:28:13;17.7;99
74458;SHT31;62896;51.032;3.712;2023-08-12T06:31:33;17.7;99
74458;SHT31;62896;51.032;3.712;2023-08-12T06:34:53;17.9;97
74458;SHT31;62896;51.032;3.712;2023-08-12T06:38:13;17.9;97
74458;SHT31;62896;51.032;3.712;2023-08-12T06:41:33;17.9;97
74458;SHT31;62896;51.032;3.712;2023-08-12T06:44:54;17.9;95
74458;SHT31;62896;51.032;3.712;2023-08-12T06:48:13;17.9;95
74458;SHT31;62896;51.032;3.712;2023-08-12T06:51:33;17.9;95
74458;SHT31;62896;51.032;3.712;2023-08-12T06:54:53;17.9;94
74458;SHT31;62896;51.032;3.712;2023-08-12T06:58:13;17.9;94
74458;SHT31;62896;51.032;3.712;2023-08-12T07:01:33;17.9;94
74458;SHT31;62896;51.032;3.712;2023-08-12T07:04:53;17.9;93
74458;SHT31;62896;51.032;3.712;2023-08-12T07:08:13;17.9;93
74458;SHT31;62896;51.032;3.712;2023-08-12T07:11:33;17.9;93
74458;SHT31;62896;51.032;3.712;2023-08-12T07:14:53;17.9;93
74458;SHT31;62896;51.032;3.712;2023-08-12T07:18:13;17.9;93
74458;SHT31;62896;51.032;3.712;2023-08-12T07:21:33;17.9;93
74458;SHT31;62896;51.032;3.712;2023-08-12T07:24:53;18;91
74458;SHT31;62896;51.032;3.712;2023-08-12T07:28:13;18;91
74458;SHT31;62896;51.032;3.712;2023-08-12T07:31:33;18;91
74458;SHT31;62896;51.032;3.712;2023-08-12T07:34:53;18.2;91
74458;SHT31;62896;51.032;3.712;2023-08-12T07:38:13;18.2;91
74458;SHT31;62896;51.032;3.712;2023-08-12T07:41:33;18.2;91
74458;SHT31;62896;51.032;3.712;2023-08-12T07:44:53;18.5;90
74458;SHT31;62896;51.032;3.712;2023-08-12T07:48:13;18.5;90
74458;SHT31;62896;51.032;3.712;2023-08-12T07:51:33;18.5;90
74458;SHT31;62896;51.032;3.712;2023-08-12T07:54:53;18.6;89
74458;SHT31;62896;51.032;3.712;2023-08-12T07:58:13;18.6;89
74458;SHT31;62896;51.032;3.712;2023-08-12T08:01:33;18.6;89
74458;SHT31;62896;51.032;3.712;2023-08-12T08:04:53;19;88
74458;SHT31;62896;51.032;3.712;2023-08-12T08:08:13;19;88
74458;SHT31;62896;51.032;3.712;2023-08-12T08:11:33;19;88
74458;SHT31;62896;51.032;3.712;2023-08-12T08:14:53;19.5;85
74458;SHT31;62896;51.032;3.712;2023-08-12T08:18:13;19.5;85
74458;SHT31;62896;51.032;3.712;2023-08-12T08:21:33;19.5;85
74458;SHT31;62896;51.032;3.712;2023-08-12T08:24:53;19.5;85
74458;SHT31;62896;51.032;3.712;2023-08-12T08:28:13;19.5;85
74458;SHT31;62896;51.032;3.712;2023-08-12T08:31:33;19.5;85
74458;SHT31;62896;51.032;3.712;2023-08-12T08:34:53;19.6;85
74458;SHT31;62896;51.032;3.712;2023-08-12T08:38:13;19.6;85
74458;SHT31;62896;51.032;3.712;2023-08-12T08:41:35;19.6;85
74458;SHT31;62896;51.032;3.712;2023-08-12T08:44:53;19.7;84
74458;SHT31;62896;51.032;3.712;2023-08-12T08:48:13;19.7;84
74458;SHT31;62896;51.032;3.712;2023-08-12T08:51:34;19.7;84
74458;SHT31;62896;51.032;3.712;2023-08-12T08:54:53;20.3;83
74458;SHT31;62896;51.032;3.712;2023-08-12T08:58:13;20.3;83
74458;SHT31;62896;51.032;3.712;2023-08-12T09:01:33;20.3;83
74458;SHT31;62896;51.032;3.712;2023-08-12T09:04:53;20.5;82
74458;SHT31;62896;51.032;3.712;2023-08-12T09:08:13;20.5;82
74458;SHT31;62896;51.032;3.712;2023-08-12T09:11:33;20.5;82
74458;SHT31;62896;51.032;3.712;2023-08-12T09:14:53;20.9;81
74458;SHT31;62896;51.032;3.712;2023-08-12T09:18:13;20.9;81
74458;SHT31;62896;51.032;3.712;2023-08-12T09:21:33;20.9;81
74458;SHT31;62896;51.032;3.712;2023-08-12T09:24:56;20.8;80
74458;SHT31;62896;51.032;3.712;2023-08-12T09:28:13;20.8;80
74458;SHT31;62896;51.032;3.712;2023-08-12T09:31:33;20.8;80
74458;SHT31;62896;51.032;3.712;2023-08-12T09:34:54;21.1;79
74458;SHT31;62896;51.032;3.712;2023-08-12T09:38:13;21.1;79
74458;SHT31;62896;51.032;3.712;2023-08-12T09:41:33;21.1;79
74458;SHT31;62896;51.032;3.712;2023-08-12T09:44:53;21.1;79
74458;SHT31;62896;51.032;3.712;2023-08-12T09:48:14;21.1;79
74458;SHT31;62896;51.032;3.712;2023-08-12T09:51:34;21.1;79
74458;SHT31;62896;51.032;3.712;2023-08-12T09:54:53;21.5;77
74458;SHT31;62896;51.032;3.712;2023-08-12T09:58:14;21.5;77
74458;SHT31;62896;51.032;3.712;2023-08-12T10:01:33;21.5;77
74458;SHT31;62896;51.032;3.712;2023-08-12T10:04:54;21.4;78
74458;SHT31;62896;51.032;3.712;2023-08-12T10:08:13;21.4;78
74458;SHT31;62896;51.032;3.712;2023-08-12T10:11:34;21.4;78
74458;SHT31;62896;51.032;3.712;2023-08-12T10:14:53;21.6;77
74458;SHT31;62896;51.032;3.712;2023-08-12T10:18:13;21.6;77
74458;SHT31;62896;51.032;3.712;2023-08-12T10:21:33;21.6;77
74458;SHT31;62896;51.032;3.712;2023-08-12T10:24:53;21.6;76
74458;SHT31;62896;51.032;3.712;2023-08-12T10:28:13;21.6;76
74458;SHT31;62896;51.032;3.712;2023-08-12T10:31:33;21.6;76
74458;SHT31;62896;51.032;3.712;2023-08-12T10:34:54;22.1;74
74458;SHT31;62896;51.032;3.712;2023-08-12T10:38:15;22.1;74
74458;SHT31;62896;51.032;3.712;2023-08-12T10:41:35;22.1;74
74458;SHT31;62896;51.032;3.712;2023-08-12T10:44:57;22.3;73
74458;SHT31;62896;51.032;3.712;2023-08-12T10:48:15;22.3;73
74458;SHT31;62896;51.032;3.712;2023-08-12T10:51:41;22.3;73
74458;SHT31;62896;51.032;3.712;2023-08-12T10:54:54;22.8;71
74458;SHT31;62896;51.032;3.712;2023-08-12T10:58:19;22.8;71
74458;SHT31;62896;51.032;3.712;2023-08-12T11:01:34;22.8;71
74458;SHT31;62896;51.032;3.712;2023-08-12T11:04:54;23.3;70
74458;SHT31;62896;51.032;3.712;2023-08-12T11:08:14;23.3;70
74458;SHT31;62896;51.032;3.712;2023-08-12T11:11:34;23.3;70
74458;SHT31;62896;51.032;3.712;2023-08-12T11:14:54;23.3;69
74458;SHT31;62896;51.032;3.712;2023-08-12T11:18:14;23.3;69
74458;SHT31;62896;51.032;3.712;2023-08-12T11:21:35;23.3;69
74458;SHT31;62896;51.032;3.712;2023-08-12T11:24:54;23.8;67
74458;SHT31;62896;51.032;3.712;2023-08-12T11:28:14;23.8;67
74458;SHT31;62896;51.032;3.712;2023-08-12T11:31:34;23.8;67
74458;SHT31;62896;51.032;3.712;2023-08-12T11:34:54;24;65
74458;SHT31;62896;51.032;3.712;2023-08-12T11:38:14;24;65
74458;SHT31;62896;51.032;3.712;2023-08-12T11:41:34;24;65
74458;SHT31;62896;51.032;3.712;2023-08-12T11:44:54;24;64
74458;SHT31;62896;51.032;3.712;2023-08-12T11:48:14;24;64
74458;SHT31;62896;51.032;3.712;2023-08-12T11:51:34;24;64
74458;SHT31;62896;51.032;3.712;2023-08-12T11:54:54;24;65
74458;SHT31;62896;51.032;3.712;2023-08-12T11:58:14;24;65
74458;SHT31;62896;51.032;3.712;2023-08-12T12:01:34;24;65
74458;SHT31;62896;51.032;3.712;2023-08-12T12:04:54;23.6;65
74458;SHT31;62896;51.032;3.712;2023-08-12T12:08:14;23.6;65
74458;SHT31;62896;51.032;3.712;2023-08-12T12:11:34;23.6;65
74458;SHT31;62896;51.032;3.712;2023-08-12T12:14:55;24.1;62
74458;SHT31;62896;51.032;3.712;2023-08-12T12:18:14;24.1;62
74458;SHT31;62896;51.032;3.712;2023-08-12T12:21:38;24.1;62
74458;SHT31;62896;51.032;3.712;2023-08-12T12:24:54;25.1;59
74458;SHT31;62896;51.032;3.712;2023-08-12T12:28:14;25.1;59
74458;SHT31;62896;51.032;3.712;2023-08-12T12:31:34;25.1;59
74458;SHT31;62896;51.032;3.712;2023-08-12T12:34:54;24.9;60
74458;SHT31;62896;51.032;3.712;2023-08-12T12:38:14;24.9;60
74458;SHT31;62896;51.032;3.712;2023-08-12T12:41:34;24.9;60
74458;SHT31;62896;51.032;3.712;2023-08-12T12:44:54;25.7;55
74458;SHT31;62896;51.032;3.712;2023-08-12T12:48:14;25.7;55
74458;SHT31;62896;51.032;3.712;2023-08-12T12:51:34;25.7;55
74458;SHT31;62896;51.032;3.712;2023-08-12T12:54:54;26.8;51
74458;SHT31;62896;51.032;3.712;2023-08-12T12:58:14;26.8;51
74458;SHT31;62896;51.032;3.712;2023-08-12T13:01:34;26.8;51
74458;SHT31;62896;51.032;3.712;2023-08-12T13:04:54;26.7;49
74458;SHT31;62896;51.032;3.712;2023-08-12T13:08:14;26.7;49
74458;SHT31;62896;51.032;3.712;2023-08-12T13:11:34;26.7;49
74458;SHT31;62896;51.032;3.712;2023-08-12T13:14:54;26.8;48
74458;SHT31;62896;51.032;3.712;2023-08-12T13:18:14;26.8;48
74458;SHT31;62896;51.032;3.712;2023-08-12T13:21:34;26.8;48
74458;SHT31;62896;51.032;3.712;2023-08-12T13:24:54;26.7;48
74458;SHT31;62896;51.032;3.712;2023-08-12T13:28:14;26.7;48
74458;SHT31;62896;51.032;3.712;2023-08-12T13:31:34;26.7;48
74458;SHT31;62896;51.032;3.712;2023-08-12T13:34:54;27.1;48
74458;SHT31;62896;51.032;3.712;2023-08-12T13:38:14;27.1;48
74458;SHT31;62896;51.032;3.712;2023-08-12T13:41:34;27.1;48
74458;SHT31;62896;51.032;3.712;2023-08-12T13:44:54;26.6;49
74458;SHT31;62896;51.032;3.712;2023-08-12T13:48:14;26.6;49
74458;SHT31;62896;51.032;3.712;2023-08-12T13:51:34;26.6;49
74458;SHT31;62896;51.032;3.712;2023-08-12T13:54:54;26.4;48
74458;SHT31;62896;51.032;3.712;2023-08-12T13:58:14;26.4;48
74458;SHT31;62896;51.032;3.712;2023-08-12T14:01:34;26.4;48
74458;SHT31;62896;51.032;3.712;2023-08-12T14:04:54;27;47
74458;SHT31;62896;51.032;3.712;2023-08-12T14:08:14;27;47
74458;SHT31;62896;51.032;3.712;2023-08-12T14:11:34;27;47
74458;SHT31;62896;51.032;3.712;2023-08-12T14:14:54;26.7;48
74458;SHT31;62896;51.032;3.712;2023-08-12T14:18:14;26.7;48
74458;SHT31;62896;51.032;3.712;2023-08-12T14:21:34;26.7;48
74458;SHT31;62896;51.032;3.712;2023-08-12T14:24:54;27.2;47
74458;SHT31;62896;51.032;3.712;2023-08-12T14:28:14;27.2;47
74458;SHT31;62896;51.032;3.712;2023-08-12T14:31:34;27.2;47
74458;SHT31;62896;51.032;3.712;2023-08-12T14:34:54;27;47
74458;SHT31;62896;51.032;3.712;2023-08-12T14:38:14;27;47
74458;SHT31;62896;51.032;3.712;2023-08-12T14:41:34;27;47
74458;SHT31;62896;51.032;3.712;2023-08-12T14:44:54;27.3;46
74458;SHT31;62896;51.032;3.712;2023-08-12T14:48:14;27.3;46
74458;SHT31;62896;51.032;3.712;2023-08-12T14:51:34;27.3;46
74458;SHT31;62896;51.032;3.712;2023-08-12T14:54:54;27.8;45
74458;SHT31;62896;51.032;3.712;2023-08-12T14:58:14;27.8;45
74458;SHT31;62896;51.032;3.712;2023-08-12T15:01:34;27.8;45
74458;SHT31;62896;51.032;3.712;2023-08-12T15:04:54;27.3;46
74458;SHT31;62896;51.032;3.712;2023-08-12T15:08:14;27.3;46
74458;SHT31;62896;51.032;3.712;2023-08-12T15:11:34;27.3;46
74458;SHT31;62896;51.032;3.712;2023-08-12T15:14:54;27.5;45
74458;SHT31;62896;51.032;3.712;2023-08-12T15:18:14;27.5;45
74458;SHT31;62896;51.032;3.712;2023-08-12T15:21:34;27.5;45
74458;SHT31;62896;51.032;3.712;2023-08-12T15:24:54;28.3;43
74458;SHT31;62896;51.032;3.712;2023-08-12T15:28:14;28.3;43
74458;SHT31;62896;51.032;3.712;2023-08-12T15:31:34;28.3;43
74458;SHT31;62896;51.032;3.712;2023-08-12T15:34:54;28.5;43
74458;SHT31;62896;51.032;3.712;2023-08-12T15:38:14;28.5;43
74458;SHT31;62896;51.032;3.712;2023-08-12T15:41:34;28.5;43
74458;SHT31;62896;51.032;3.712;2023-08-12T15:44:54;28.5;43
74458;SHT31;62896;51.032;3.712;2023-08-12T15:48:14;28.5;43
74458;SHT31;62896;51.032;3.712;2023-08-12T15:51:34;28.5;43
74458;SHT31;62896;51.032;3.712;2023-08-12T15:54:54;29.4;41
74458;SHT31;62896;51.032;3.712;2023-08-12T15:58:14;29.4;41
74458;SHT31;62896;51.032;3.712;2023-08-12T16:01:34;29.4;41
74458;SHT31;62896;51.032;3.712;2023-08-12T16:04:54;29.1;41
74458;SHT31;62896;51.032;3.712;2023-08-12T16:08:14;29.1;41
74458;SHT31;62896;51.032;3.712;2023-08-12T16:11:34;29.1;41
74458;SHT31;62896;51.032;3.712;2023-08-12T16:14:54;28.9;41
74458;SHT31;62896;51.032;3.712;2023-08-12T16:18:14;28.9;41
74458;SHT31;62896;51.032;3.712;2023-08-12T16:21:34;28.9;41
74458;SHT31;62896;51.032;3.712;2023-08-12T16:24:54;27.3;44
74458;SHT31;62896;51.032;3.712;2023-08-12T16:28:14;27.3;44
74458;SHT31;62896;51.032;3.712;2023-08-12T16:31:34;27.3;44
74458;SHT31;62896;51.032;3.712;2023-08-12T16:34:54;25.7;48
74458;SHT31;62896;51.032;3.712;2023-08-12T16:38:14;25.7;48
74458;SHT31;62896;51.032;3.712;2023-08-12T16:41:34;25.7;48
74458;SHT31;62896;51.032;3.712;2023-08-12T16:44:54;24.9;50
74458;SHT31;62896;51.032;3.712;2023-08-12T16:48:14;24.9;50
74458;SHT31;62896;51.032;3.712;2023-08-12T16:51:34;24.9;50
74458;SHT31;62896;51.032;3.712;2023-08-12T16:54:54;24.6;50
74458;SHT31;62896;51.032;3.712;2023-08-12T16:58:14;24.6;50
74458;SHT31;62896;51.032;3.712;2023-08-12T17:01:34;24.6;50
74458;SHT31;62896;51.032;3.712;2023-08-12T17:04:54;24.4;52
74458;SHT31;62896;51.032;3.712;2023-08-12T17:08:14;24.4;52
74458;SHT31;62896;51.032;3.712;2023-08-12T17:11:34;24.4;52
74458;SHT31;62896;51.032;3.712;2023-08-12T17:14:54;23.7;53
74458;SHT31;62896;51.032;3.712;2023-08-12T17:18:14;23.7;53
74458;SHT31;62896;51.032;3.712;2023-08-12T17:21:34;23.7;53
74458;SHT31;62896;51.032;3.712;2023-08-12T17:24:54;23.5;54
74458;SHT31;62896;51.032;3.712;2023-08-12T17:28:14;23.5;54
74458;SHT31;62896;51.032;3.712;2023-08-12T17:31:34;23.5;54
74458;SHT31;62896;51.032;3.712;2023-08-12T17:34:54;23.3;53
74458;SHT31;62896;51.032;3.712;2023-08-12T17:38:14;23.3;53
74458;SHT31;62896;51.032;3.712;2023-08-12T17:41:34;23.3;53
74458;SHT31;62896;51.032;3.712;2023-08-12T17:44:54;23.2;53
74458;SHT31;62896;51.032;3.712;2023-08-12T17:48:14;23.2;53
74458;SHT31;62896;51.032;3.712;2023-08-12T17:51:34;23.2;53
74458;SHT31;62896;51.032;3.712;2023-08-12T17:54:54;23.1;53
74458;SHT31;62896;51.032;3.712;2023-08-12T17:58:14;23.1;53
74458;SHT31;62896;51.032;3.712;2023-08-12T18:01:34;23.1;53
74458;SHT31;62896;51.032;3.712;2023-08-12T18:04:54;23;53
74458;SHT31;62896;51.032;3.712;2023-08-12T18:08:14;23;53
74458;SHT31;62896;51.032;3.712;2023-08-12T18:11:34;23;53
74458;SHT31;62896;51.032;3.712;2023-08-12T18:14:54;22.7;54
74458;SHT31;62896;51.032;3.712;2023-08-12T18:18:14;22.7;54
74458;SHT31;62896;51.032;3.712;2023-08-12T18:21:34;22.7;54
74458;SHT31;62896;51.032;3.712;2023-08-12T18:24:54;22.5;55
74458;SHT31;62896;51.032;3.712;2023-08-12T18:28:14;22.5;55
74458;SHT31;62896;51.032;3.712;2023-08-12T18:31:34;22.5;55
74458;SHT31;62896;51.032;3.712;2023-08-12T18:34:54;22.2;57
74458;SHT31;62896;51.032;3.712;2023-08-12T18:38:14;22.2;57
74458;SHT31;62896;51.032;3.712;2023-08-12T18:41:34;22.2;57
74458;SHT31;62896;51.032;3.712;2023-08-12T18:44:54;21.9;58
74458;SHT31;62896;51.032;3.712;2023-08-12T18:48:14;21.9;58
74458;SHT31;62896;51.032;3.712;2023-08-12T18:51:34;21.9;58
74458;SHT31;62896;51.032;3.712;2023-08-12T18:54:54;21.6;59
74458;SHT31;62896;51.032;3.712;2023-08-12T18:58:14;21.6;59
74458;SHT31;62896;51.032;3.712;2023-08-12T19:01:34;21.6;59
74458;SHT31;62896;51.032;3.712;2023-08-12T19:04:54;21.5;60
74458;SHT31;62896;51.032;3.712;2023-08-12T19:08:14;21.5;60
74458;SHT31;62896;51.032;3.712;2023-08-12T19:11:34;21.5;60
74458;SHT31;62896;51.032;3.712;2023-08-12T19:14:54;21.2;61
74458;SHT31;62896;51.032;3.712;2023-08-12T19:18:14;21.2;61
74458;SHT31;62896;51.032;3.712;2023-08-12T19:21:34;21.2;61
74458;SHT31;62896;51.032;3.712;2023-08-12T19:24:54;21;62
74458;SHT31;62896;51.032;3.712;2023-08-12T19:28:14;21;62
74458;SHT31;62896;51.032;3.712;2023-08-12T19:31:34;21;62
74458;SHT31;62896;51.032;3.712;2023-08-12T19:34:54;20.9;63
74458;SHT31;62896;51.032;3.712;2023-08-12T19:38:14;20.9;63
74458;SHT31;62896;51.032;3.712;2023-08-12T19:41:34;20.9;63
74458;SHT31;62896;51.032;3.712;2023-08-12T19:44:54;20.7;64
74458;SHT31;62896;51.032;3.712;2023-08-12T19:48:14;20.7;64
74458;SHT31;62896;51.032;3.712;2023-08-12T19:51:34;20.7;64
74458;SHT31;62896;51.032;3.712;2023-08-12T19:54:54;20.6;65
74458;SHT31;62896;51.032;3.712;2023-08-12T19:58:14;20.6;65
74458;SHT31;62896;51.032;3.712;2023-08-12T20:01:34;20.6;65
74458;SHT31;62896;51.032;3.712;2023-08-12T20:04:57;20.4;66
74458;SHT31;62896;51.032;3.712;2023-08-12T20:08:14;20.4;66
74458;SHT31;62896;51.032;3.712;2023-08-12T20:11:34;20.4;66
74458;SHT31;62896;51.032;3.712;2023-08-12T20:14:54;20.2;67
74458;SHT31;62896;51.032;3.712;2023-08-12T20:18:14;20.2;67
74458;SHT31;62896;51.032;3.712;2023-08-12T20:21:34;20.2;67
74458;SHT31;62896;51.032;3.712;2023-08-12T20:24:54;20.1;68
74458;SHT31;62896;51.032;3.712;2023-08-12T20:28:14;20.1;68
74458;SHT31;62896;51.032;3.712;2023-08-12T20:31:34;20.1;68
74458;SHT31;62896;51.032;3.712;2023-08-12T20:34:54;20;69
74458;SHT31;62896;51.032;3.712;2023-08-12T20:38:14;20;69
74458;SHT31;62896;51.032;3.712;2023-08-12T20:41:34;20;69
74458;SHT31;62896;51.032;3.712;2023-08-12T20:44:54;19.8;70
74458;SHT31;62896;51.032;3.712;2023-08-12T20:48:14;19.8;70
74458;SHT31;62896;51.032;3.712;2023-08-12T20:51:34;19.8;70
74458;SHT31;62896;51.032;3.712;2023-08-12T20:54:54;19.6;70
74458;SHT31;62896;51.032;3.712;2023-08-12T20:58:14;19.6;70
74458;SHT31;62896;51.032;3.712;2023-08-12T21:01:34;19.6;70
74458;SHT31;62896;51.032;3.712;2023-08-12T21:04:54;19.6;71
74458;SHT31;62896;51.032;3.712;2023-08-12T21:08:14;19.6;71
74458;SHT31;62896;51.032;3.712;2023-08-12T21:11:34;19.6;71
74458;SHT31;62896;51.032;3.712;2023-08-12T21:14:54;19.5;72
74458;SHT31;62896;51.032;3.712;2023-08-12T21:18:14;19.5;72
74458;SHT31;62896;51.032;3.712;2023-08-12T21:21:34;19.5;72
74458;SHT31;62896;51.032;3.712;2023-08-12T21:24:54;19.3;72
74458;SHT31;62896;51.032;3.712;2023-08-12T21:28:14;19.3;72
74458;SHT31;62896;51.032;3.712;2023-08-12T21:31:34;19.3;72
74458;SHT31;62896;51.032;3.712;2023-08-12T21:34:54;19.3;72
74458;SHT31;62896;51.032;3.712;2023-08-12T21:38:14;19.3;72
74458;SHT31;62896;51.032;3.712;2023-08-12T21:41:34;19.3;72
74458;SHT31;62896;51.032;3.712;2023-08-12T21:44:54;19.2;73
74458;SHT31;62896;51.032;3.712;2023-08-12T21:48:14;19.2;73
74458;SHT31;62896;51.032;3.712;2023-08-12T21:51:34;19.2;73
74458;SHT31;62896;51.032;3.712;2023-08-12T21:54:54;19;74
74458;SHT31;62896;51.032;3.712;2023-08-12T21:58:14;19;74
74458;SHT31;62896;51.032;3.712;2023-08-12T22:01:34;19;74
74458;SHT31;62896;51.032;3.712;2023-08-12T22:04:54;18.9;74
74458;SHT31;62896;51.032;3.712;2023-08-12T22:08:14;18.9;74
74458;SHT31;62896;51.032;3.712;2023-08-12T22:11:34;18.9;74
74458;SHT31;62896;51.032;3.712;2023-08-12T22:14:54;18.8;75
74458;SHT31;62896;51.032;3.712;2023-08-12T22:18:14;18.8;75
74458;SHT31;62896;51.032;3.712;2023-08-12T22:21:34;18.8;75
74458;SHT31;62896;51.032;3.712;2023-08-12T22:24:54;18.7;75
74458;SHT31;62896;51.032;3.712;2023-08-12T22:28:14;18.7;75
74458;SHT31;62896;51.032;3.712;2023-08-12T22:31:34;18.7;75
74458;SHT31;62896;51.032;3.712;2023-08-12T22:34:54;18.5;76